sensor_id;sensor_type;location;lat;lon;timestamp;pressure;altitude;pressure_sealevel;temperature;humidity
41218;BME280;26950;50.960;7.138;2023-04-07T00:00:24;100420.41;;;11.04;74.06
41218;BME280;26950;50.960;7.138;2023-04-07T00:02:51;100412.16;;;11.25;73.43
41218;BME280;26950;50.960;7.138;2023-04-07T00:05:17;100418.78;;;11.10;73.93
41218;BME280;26950;50.960;7.138;2023-04-07T00:07:44;100407.94;;;11.33;72.69
41218;BME280;26950;50.960;7.138;2023-04-07T00:10:10;100406.69;;;11.16;73.48
41218;BME280;26950;50.960;7.138;2023-04-07T00:12:38;100420.09;;;11.28;72.50
41218;BME280;26950;50.960;7.138;2023-04-07T00:15:06;100404.28;;;11.25;73.01
41218;BME280;26950;50.960;7.138;2023-04-07T00:17:32;100403.47;;;11.72;71.32
41218;BME280;26950;50.960;7.138;2023-04-07T00:19:58;100403.63;;;11.79;70.97
41218;BME280;26950;50.960;7.138;2023-04-07T00:22:25;100406.31;;;11.39;72.48
41218;BME280;26950;50.960;7.138;2023-04-07T00:24:51;100404.22;;;11.65;71.48
41218;BME280;26950;50.960;7.138;2023-04-07T00:27:18;100402.00;;;11.84;71.03
41218;BME280;26950;50.960;7.138;2023-04-07T00:29:46;100400.91;;;11.32;72.79
41218;BME280;26950;50.960;7.138;2023-04-07T00:32:12;100398.13;;;11.67;71.56
41218;BME280;26950;50.960;7.138;2023-04-07T00:34:39;100398.06;;;11.64;71.75
41218;BME280;26950;50.960;7.138;2023-04-07T00:37:06;100400.25;;;11.85;71.06
41218;BME280;26950;50.960;7.138;2023-04-07T00:39:32;100399.38;;;11.84;71.30
41218;BME280;26950;50.960;7.138;2023-04-07T00:41:59;100395.94;;;11.88;70.76
41218;BME280;26950;50.960;7.138;2023-04-07T00:44:25;100386.78;;;11.70;71.69
41218;BME280;26950;50.960;7.138;2023-04-07T00:46:53;100394.88;;;11.80;71.19
41218;BME280;26950;50.960;7.138;2023-04-07T00:49:19;100384.47;;;11.43;72.78
41218;BME280;26950;50.960;7.138;2023-04-07T00:51:46;100390.97;;;11.60;72.58
41218;BME280;26950;50.960;7.138;2023-04-07T00:54:13;100383.97;;;11.60;72.55
41218;BME280;26950;50.960;7.138;2023-04-07T00:56:40;100383.56;;;11.83;71.23
41218;BME280;26950;50.960;7.138;2023-04-07T00:59:06;100376.28;;;11.27;73.31
41218;BME280;26950;50.960;7.138;2023-04-07T01:01:37;100381.53;;;11.70;72.16
41218;BME280;26950;50.960;7.138;2023-04-07T01:04:09;100379.91;;;11.32;72.92
41218;BME280;26950;50.960;7.138;2023-04-07T01:06:39;100378.66;;;11.57;72.45
41218;BME280;26950;50.960;7.138;2023-04-07T01:09:13;100379.06;;;11.77;71.75
41218;BME280;26950;50.960;7.138;2023-04-07T01:11:43;100374.34;;;11.62;72.49
41218;BME280;26950;50.960;7.138;2023-04-07T01:14:14;100373.44;;;11.60;72.55
41218;BME280;26950;50.960;7.138;2023-04-07T01:16:48;100372.81;;;11.72;72.16
41218;BME280;26950;50.960;7.138;2023-04-07T01:19:31;100370.81;;;11.18;74.45
41218;BME280;26950;50.960;7.138;2023-04-07T01:21:59;100366.94;;;11.42;73.76
41218;BME280;26950;50.960;7.138;2023-04-07T01:24:54;100374.56;;;11.72;72.59
41218;BME280;26950;50.960;7.138;2023-04-07T01:27:48;100372.06;;;11.35;74.41
41218;BME280;26950;50.960;7.138;2023-04-07T01:30:22;100370.91;;;10.82;76.51
41218;BME280;26950;50.960;7.138;2023-04-07T01:32:50;100364.94;;;11.28;74.98
41218;BME280;26950;50.960;7.138;2023-04-07T01:35:18;100366.66;;;11.70;73.19
41218;BME280;26950;50.960;7.138;2023-04-07T01:37:46;100366.88;;;11.81;72.88
41218;BME280;26950;50.960;7.138;2023-04-07T01:40:15;100365.44;;;11.98;72.18
41218;BME280;26950;50.960;7.138;2023-04-07T01:42:43;100374.19;;;11.97;72.36
41218;BME280;26950;50.960;7.138;2023-04-07T01:45:11;100377.81;;;12.04;72.33
41218;BME280;26950;50.960;7.138;2023-04-07T01:47:40;100372.50;;;12.01;72.38
41218;BME280;26950;50.960;7.138;2023-04-07T01:50:07;100374.81;;;11.82;72.42
41218;BME280;26950;50.960;7.138;2023-04-07T01:52:35;100370.38;;;11.81;72.70
41218;BME280;26950;50.960;7.138;2023-04-07T01:55:02;100368.16;;;12.03;72.18
41218;BME280;26950;50.960;7.138;2023-04-07T01:57:29;100372.69;;;12.13;71.80
41218;BME280;26950;50.960;7.138;2023-04-07T01:59:55;100369.28;;;12.17;71.73
41218;BME280;26950;50.960;7.138;2023-04-07T02:02:22;100364.00;;;12.17;71.31
41218;BME280;26950;50.960;7.138;2023-04-07T02:04:53;100367.41;;;12.11;71.64
41218;BME280;26950;50.960;7.138;2023-04-07T02:07:25;100363.97;;;12.14;71.46
41218;BME280;26950;50.960;7.138;2023-04-07T02:09:55;100371.09;;;12.20;71.52
41218;BME280;26950;50.960;7.138;2023-04-07T02:12:25;100369.38;;;12.23;71.35
41218;BME280;26950;50.960;7.138;2023-04-07T02:14:52;100365.94;;;12.26;71.27
41218;BME280;26950;50.960;7.138;2023-04-07T02:17:20;100367.81;;;12.34;71.08
41218;BME280;26950;50.960;7.138;2023-04-07T02:19:50;100367.03;;;12.38;70.55
41218;BME280;26950;50.960;7.138;2023-04-07T02:22:17;100368.75;;;12.38;70.70
41218;BME280;26950;50.960;7.138;2023-04-07T02:24:44;100363.56;;;12.42;70.54
41218;BME280;26950;50.960;7.138;2023-04-07T02:27:10;100366.16;;;12.39;70.75
41218;BME280;26950;50.960;7.138;2023-04-07T02:29:37;100365.06;;;12.27;71.29
41218;BME280;26950;50.960;7.138;2023-04-07T02:32:04;100365.03;;;12.25;71.46
41218;BME280;26950;50.960;7.138;2023-04-07T02:34:31;100369.34;;;12.20;71.45
41218;BME280;26950;50.960;7.138;2023-04-07T02:36:59;100362.34;;;12.21;71.68
41218;BME280;26950;50.960;7.138;2023-04-07T02:39:25;100362.34;;;12.22;71.74
41218;BME280;26950;50.960;7.138;2023-04-07T02:41:51;100367.59;;;12.21;71.69
41218;BME280;26950;50.960;7.138;2023-04-07T02:44:18;100366.81;;;12.26;71.74
41218;BME280;26950;50.960;7.138;2023-04-07T02:46:44;100364.28;;;12.32;71.44
41218;BME280;26950;50.960;7.138;2023-04-07T02:49:11;100364.34;;;12.35;71.42
41218;BME280;26950;50.960;7.138;2023-04-07T02:51:37;100367.03;;;12.38;71.41
41218;BME280;26950;50.960;7.138;2023-04-07T02:54:05;100370.47;;;12.34;71.42
41218;BME280;26950;50.960;7.138;2023-04-07T02:56:31;100365.19;;;12.34;71.53
41218;BME280;26950;50.960;7.138;2023-04-07T02:58:58;100367.13;;;12.45;71.23
41218;BME280;26950;50.960;7.138;2023-04-07T03:01:24;100366.25;;;12.46;71.13
41218;BME280;26950;50.960;7.138;2023-04-07T03:03:52;100366.09;;;12.36;71.47
41218;BME280;26950;50.960;7.138;2023-04-07T03:06:18;100373.88;;;12.29;71.81
41218;BME280;26950;50.960;7.138;2023-04-07T03:08:44;100373.19;;;12.40;71.48
41218;BME280;26950;50.960;7.138;2023-04-07T03:11:12;100372.09;;;12.28;72.00
41218;BME280;26950;50.960;7.138;2023-04-07T03:13:39;100369.56;;;12.32;71.81
41218;BME280;26950;50.960;7.138;2023-04-07T03:16:05;100375.81;;;12.39;71.58
41218;BME280;26950;50.960;7.138;2023-04-07T03:18:32;100370.66;;;12.47;71.50
41218;BME280;26950;50.960;7.138;2023-04-07T03:20:58;100362.75;;;12.47;71.73
41218;BME280;26950;50.960;7.138;2023-04-07T03:23:24;100367.19;;;12.49;71.42
41218;BME280;26950;50.960;7.138;2023-04-07T03:25:53;100373.22;;;12.42;71.79
41218;BME280;26950;50.960;7.138;2023-04-07T03:28:21;100364.56;;;12.49;71.49
41218;BME280;26950;50.960;7.138;2023-04-07T03:30:47;100364.66;;;12.57;71.11
41218;BME280;26950;50.960;7.138;2023-04-07T03:33:14;100371.69;;;12.56;71.30
41218;BME280;26950;50.960;7.138;2023-04-07T03:35:41;100367.25;;;12.52;71.53
41218;BME280;26950;50.960;7.138;2023-04-07T03:38:07;100370.84;;;12.57;71.38
41218;BME280;26950;50.960;7.138;2023-04-07T03:40:34;100360.25;;;12.56;71.21
41218;BME280;26950;50.960;7.138;2023-04-07T03:43:00;100370.09;;;12.66;71.04
41218;BME280;26950;50.960;7.138;2023-04-07T03:45:28;100368.34;;;12.68;71.13
41218;BME280;26950;50.960;7.138;2023-04-07T03:47:55;100367.47;;;12.66;71.25
41218;BME280;26950;50.960;7.138;2023-04-07T03:50:21;100371.84;;;12.67;71.20
41218;BME280;26950;50.960;7.138;2023-04-07T03:52:47;100371.03;;;12.71;70.92
41218;BME280;26950;50.960;7.138;2023-04-07T03:55:14;100369.22;;;12.68;71.22
41218;BME280;26950;50.960;7.138;2023-04-07T03:57:40;100373.63;;;12.69;71.26
41218;BME280;26950;50.960;7.138;2023-04-07T04:00:08;100370.97;;;12.66;71.37
41218;BME280;26950;50.960;7.138;2023-04-07T04:02:36;100378.84;;;12.65;71.70
41218;BME280;26950;50.960;7.138;2023-04-07T04:05:03;100381.41;;;12.62;71.96
41218;BME280;26950;50.960;7.138;2023-04-07T04:07:29;100379.66;;;12.61;71.75
41218;BME280;26950;50.960;7.138;2023-04-07T04:09:57;100370.97;;;12.66;71.71
41218;BME280;26950;50.960;7.138;2023-04-07T04:12:24;100383.34;;;12.71;71.58
41218;BME280;26950;50.960;7.138;2023-04-07T04:14:50;100380.69;;;12.71;71.71
41218;BME280;26950;50.960;7.138;2023-04-07T04:17:16;100381.59;;;12.73;71.88
41218;BME280;26950;50.960;7.138;2023-04-07T04:19:44;100385.09;;;12.72;71.76
41218;BME280;26950;50.960;7.138;2023-04-07T04:22:11;100386.84;;;12.73;71.96
41218;BME280;26950;50.960;7.138;2023-04-07T04:24:37;100395.66;;;12.75;71.82
41218;BME280;26950;50.960;7.138;2023-04-07T04:27:06;100399.84;;;12.62;72.53
41218;BME280;26950;50.960;7.138;2023-04-07T04:29:32;100392.91;;;12.67;72.07
41218;BME280;26950;50.960;7.138;2023-04-07T04:31:58;100394.53;;;12.59;72.56
41218;BME280;26950;50.960;7.138;2023-04-07T04:34:25;100397.94;;;12.52;72.70
41218;BME280;26950;50.960;7.138;2023-04-07T04:36:53;100403.09;;;12.46;72.83
41218;BME280;26950;50.960;7.138;2023-04-07T04:39:19;100404.66;;;12.34;73.53
41218;BME280;26950;50.960;7.138;2023-04-07T04:41:45;100394.38;;;12.48;72.87
41218;BME280;26950;50.960;7.138;2023-04-07T04:44:12;100408.38;;;12.47;72.81
41218;BME280;26950;50.960;7.138;2023-04-07T04:46:38;100407.41;;;12.42;73.17
41218;BME280;26950;50.960;7.138;2023-04-07T04:49:06;100404.56;;;12.28;73.36
41218;BME280;26950;50.960;7.138;2023-04-07T04:51:32;100406.53;;;12.40;72.83
41218;BME280;26950;50.960;7.138;2023-04-07T04:54:00;100409.25;;;12.45;72.53
41218;BME280;26950;50.960;7.138;2023-04-07T04:56:28;100412.34;;;12.24;73.43
41218;BME280;26950;50.960;7.138;2023-04-07T04:58:54;100419.56;;;12.32;72.99
41218;BME280;26950;50.960;7.138;2023-04-07T05:01:20;100416.97;;;12.35;72.83
41218;BME280;26950;50.960;7.138;2023-04-07T05:03:47;100418.00;;;12.45;72.46
41218;BME280;26950;50.960;7.138;2023-04-07T05:06:13;100424.97;;;12.43;72.37
41218;BME280;26950;50.960;7.138;2023-04-07T05:08:40;100416.88;;;12.31;72.85
41218;BME280;26950;50.960;7.138;2023-04-07T05:11:08;100417.06;;;12.41;72.41
41218;BME280;26950;50.960;7.138;2023-04-07T05:13:34;100426.50;;;12.30;72.93
41218;BME280;26950;50.960;7.138;2023-04-07T05:16:00;100422.44;;;12.48;71.99
41218;BME280;26950;50.960;7.138;2023-04-07T05:18:27;100428.47;;;12.42;72.09
41218;BME280;26950;50.960;7.138;2023-04-07T05:20:53;100427.69;;;12.48;72.00
41218;BME280;26950;50.960;7.138;2023-04-07T05:23:20;100425.84;;;12.43;72.12
41218;BME280;26950;50.960;7.138;2023-04-07T05:25:46;100431.13;;;12.43;72.24
41218;BME280;26950;50.960;7.138;2023-04-07T05:28:14;100430.97;;;12.34;72.39
41218;BME280;26950;50.960;7.138;2023-04-07T05:30:40;100434.63;;;12.42;72.26
41218;BME280;26950;50.960;7.138;2023-04-07T05:33:07;100431.91;;;12.38;72.71
41218;BME280;26950;50.960;7.138;2023-04-07T05:35:33;100438.22;;;12.48;72.00
41218;BME280;26950;50.960;7.138;2023-04-07T05:38:00;100440.75;;;12.41;72.11
41218;BME280;26950;50.960;7.138;2023-04-07T05:40:27;100441.59;;;12.39;72.30
41218;BME280;26950;50.960;7.138;2023-04-07T05:42:54;100441.59;;;12.40;72.06
41218;BME280;26950;50.960;7.138;2023-04-07T05:45:22;100445.16;;;12.42;72.00
41218;BME280;26950;50.960;7.138;2023-04-07T05:47:48;100446.00;;;12.41;72.16
41218;BME280;26950;50.960;7.138;2023-04-07T05:50:15;100443.81;;;12.18;73.05
41218;BME280;26950;50.960;7.138;2023-04-07T05:52:42;100452.94;;;12.36;72.27
41218;BME280;26950;50.960;7.138;2023-04-07T05:55:08;100448.19;;;12.17;73.20
41218;BME280;26950;50.960;7.138;2023-04-07T05:57:35;100452.03;;;12.34;72.46
41218;BME280;26950;50.960;7.138;2023-04-07T06:00:02;100452.03;;;12.36;72.22
41218;BME280;26950;50.960;7.138;2023-04-07T06:02:30;100457.22;;;12.31;72.33
41218;BME280;26950;50.960;7.138;2023-04-07T06:04:57;100457.19;;;12.28;72.38
41218;BME280;26950;50.960;7.138;2023-04-07T06:07:23;100452.94;;;12.38;71.85
41218;BME280;26950;50.960;7.138;2023-04-07T06:09:50;100465.06;;;12.28;72.37
41218;BME280;26950;50.960;7.138;2023-04-07T06:12:16;100469.63;;;11.92;73.85
41218;BME280;26950;50.960;7.138;2023-04-07T06:14:45;100475.25;;;12.10;73.14
41218;BME280;26950;50.960;7.138;2023-04-07T06:17:12;100468.97;;;12.02;73.43
41218;BME280;26950;50.960;7.138;2023-04-07T06:19:40;100473.44;;;12.07;73.04
41218;BME280;26950;50.960;7.138;2023-04-07T06:22:06;100471.59;;;12.03;73.34
41218;BME280;26950;50.960;7.138;2023-04-07T06:24:33;100477.47;;;11.88;73.78
41218;BME280;26950;50.960;7.138;2023-04-07T06:26:59;100474.38;;;12.11;72.99
41218;BME280;26950;50.960;7.138;2023-04-07T06:29:26;100481.41;;;12.12;72.79
41218;BME280;26950;50.960;7.138;2023-04-07T06:31:53;100475.25;;;12.11;72.86
41218;BME280;26950;50.960;7.138;2023-04-07T06:34:19;100476.88;;;12.03;73.19
41218;BME280;26950;50.960;7.138;2023-04-07T06:36:47;100487.16;;;11.93;73.59
41218;BME280;26950;50.960;7.138;2023-04-07T06:39:14;100480.38;;;12.04;73.07
41218;BME280;26950;50.960;7.138;2023-04-07T06:41:40;100489.50;;;12.23;72.14
41218;BME280;26950;50.960;7.138;2023-04-07T06:44:08;100494.94;;;12.32;71.94
41218;BME280;26950;50.960;7.138;2023-04-07T06:46:35;100483.38;;;12.24;71.97
41218;BME280;26950;50.960;7.138;2023-04-07T06:49:01;100490.13;;;12.08;72.20
41218;BME280;26950;50.960;7.138;2023-04-07T06:51:28;100490.34;;;12.20;72.10
41218;BME280;26950;50.960;7.138;2023-04-07T06:53:57;100496.66;;;12.28;71.64
41218;BME280;26950;50.960;7.138;2023-04-07T06:56:24;100502.69;;;12.24;71.74
41218;BME280;26950;50.960;7.138;2023-04-07T06:58:50;100501.94;;;12.31;71.66
41218;BME280;26950;50.960;7.138;2023-04-07T07:01:17;100504.50;;;12.27;71.85
41218;BME280;26950;50.960;7.138;2023-04-07T07:03:43;100502.66;;;12.23;71.78
41218;BME280;26950;50.960;7.138;2023-04-07T07:06:10;100508.09;;;12.32;71.52
41218;BME280;26950;50.960;7.138;2023-04-07T07:08:37;100509.13;;;12.38;71.43
41218;BME280;26950;50.960;7.138;2023-04-07T07:11:04;100509.78;;;12.28;71.72
41218;BME280;26950;50.960;7.138;2023-04-07T07:13:31;100514.69;;;12.10;72.33
41218;BME280;26950;50.960;7.138;2023-04-07T07:15:57;100518.47;;;12.24;71.95
41218;BME280;26950;50.960;7.138;2023-04-07T07:18:24;100514.06;;;12.22;71.96
41218;BME280;26950;50.960;7.138;2023-04-07T07:20:50;100521.09;;;12.24;72.00
41218;BME280;26950;50.960;7.138;2023-04-07T07:23:17;100518.66;;;12.33;71.49
41218;BME280;26950;50.960;7.138;2023-04-07T07:25:43;100523.09;;;12.36;71.76
41218;BME280;26950;50.960;7.138;2023-04-07T07:28:11;100529.13;;;12.30;72.08
41218;BME280;26950;50.960;7.138;2023-04-07T07:30:38;100540.22;;;12.14;72.76
41218;BME280;26950;50.960;7.138;2023-04-07T07:33:05;100537.00;;;12.29;72.07
41218;BME280;26950;50.960;7.138;2023-04-07T07:35:32;100540.50;;;12.29;71.95
41218;BME280;26950;50.960;7.138;2023-04-07T07:37:58;100541.84;;;12.07;72.67
41218;BME280;26950;50.960;7.138;2023-04-07T07:40:25;100542.31;;;11.88;73.06
41218;BME280;26950;50.960;7.138;2023-04-07T07:42:51;100539.41;;;12.18;72.53
41218;BME280;26950;50.960;7.138;2023-04-07T07:45:19;100542.22;;;12.26;72.42
41218;BME280;26950;50.960;7.138;2023-04-07T07:47:46;100541.41;;;12.31;72.11
41218;BME280;26950;50.960;7.138;2023-04-07T07:50:12;100551.22;;;12.38;72.20
41218;BME280;26950;50.960;7.138;2023-04-07T07:52:39;100546.91;;;12.42;71.90
41218;BME280;26950;50.960;7.138;2023-04-07T07:55:06;100544.22;;;12.39;71.64
41218;BME280;26950;50.960;7.138;2023-04-07T07:57:32;100552.00;;;12.34;72.25
41218;BME280;26950;50.960;7.138;2023-04-07T07:59:59;100551.28;;;12.43;71.87
41218;BME280;26950;50.960;7.138;2023-04-07T08:02:27;100550.59;;;12.52;71.76
41218;BME280;26950;50.960;7.138;2023-04-07T08:04:55;100550.66;;;12.55;71.56
41218;BME280;26950;50.960;7.138;2023-04-07T08:07:22;100559.28;;;12.48;71.57
41218;BME280;26950;50.960;7.138;2023-04-07T08:09:48;100558.53;;;12.55;71.13
41218;BME280;26950;50.960;7.138;2023-04-07T08:12:15;100556.94;;;12.63;71.03
41218;BME280;26950;50.960;7.138;2023-04-07T08:14:41;100562.19;;;12.63;70.86
41218;BME280;26950;50.960;7.138;2023-04-07T08:17:08;100565.69;;;12.62;71.06
41218;BME280;26950;50.960;7.138;2023-04-07T08:19:35;100575.34;;;12.61;70.99
41218;BME280;26950;50.960;7.138;2023-04-07T08:22:02;100573.53;;;12.59;70.83
41218;BME280;26950;50.960;7.138;2023-04-07T08:24:28;100571.06;;;12.68;70.59
41218;BME280;26950;50.960;7.138;2023-04-07T08:26:55;100582.69;;;12.78;70.54
41218;BME280;26950;50.960;7.138;2023-04-07T08:29:21;100573.94;;;12.80;70.80
41218;BME280;26950;50.960;7.138;2023-04-07T08:31:48;100581.78;;;12.77;71.03
41218;BME280;26950;50.960;7.138;2023-04-07T08:34:14;100584.22;;;12.68;71.46
41218;BME280;26950;50.960;7.138;2023-04-07T08:36:42;100580.75;;;12.69;71.08
41218;BME280;26950;50.960;7.138;2023-04-07T08:39:08;100585.22;;;12.73;71.09
41218;BME280;26950;50.960;7.138;2023-04-07T08:41:36;100588.72;;;12.72;70.95
41218;BME280;26950;50.960;7.138;2023-04-07T08:44:03;100594.03;;;12.75;70.73
41218;BME280;26950;50.960;7.138;2023-04-07T08:46:32;100591.28;;;12.69;70.77
41218;BME280;26950;50.960;7.138;2023-04-07T08:49:00;100595.66;;;12.68;70.98
41218;BME280;26950;50.960;7.138;2023-04-07T08:51:27;100593.00;;;12.67;71.10
41218;BME280;26950;50.960;7.138;2023-04-07T08:54:03;100595.72;;;12.72;71.28
41218;BME280;26950;50.960;7.138;2023-04-07T08:56:31;100592.31;;;12.77;70.92
41218;BME280;26950;50.960;7.138;2023-04-07T08:58:59;100600.09;;;12.71;71.48
41218;BME280;26950;50.960;7.138;2023-04-07T09:01:26;100609.94;;;12.81;70.99
41218;BME280;26950;50.960;7.138;2023-04-07T09:03:53;100604.00;;;12.91;70.95
41218;BME280;26950;50.960;7.138;2023-04-07T09:06:22;100603.00;;;12.86;71.36
41218;BME280;26950;50.960;7.138;2023-04-07T09:08:48;100610.16;;;12.93;71.27
41218;BME280;26950;50.960;7.138;2023-04-07T09:11:16;100602.88;;;12.79;71.59
41218;BME280;26950;50.960;7.138;2023-04-07T09:13:43;100605.78;;;12.47;72.73
41218;BME280;26950;50.960;7.138;2023-04-07T09:16:09;100615.94;;;12.74;71.45
41218;BME280;26950;50.960;7.138;2023-04-07T09:18:38;100612.22;;;12.63;72.24
41218;BME280;26950;50.960;7.138;2023-04-07T09:21:05;100617.53;;;12.64;72.03
41218;BME280;26950;50.960;7.138;2023-04-07T09:23:33;100621.28;;;12.77;71.72
41218;BME280;26950;50.960;7.138;2023-04-07T09:26:18;100616.13;;;12.83;71.37
41218;BME280;26950;50.960;7.138;2023-04-07T09:28:47;100619.63;;;12.82;71.05
41218;BME280;26950;50.960;7.138;2023-04-07T09:31:15;100629.81;;;12.64;71.84
41218;BME280;26950;50.960;7.138;2023-04-07T09:33:41;100623.75;;;12.69;71.72
41218;BME280;26950;50.960;7.138;2023-04-07T09:36:08;100621.31;;;12.79;71.50
41218;BME280;26950;50.960;7.138;2023-04-07T09:38:36;100629.22;;;12.79;71.67
41218;BME280;26950;50.960;7.138;2023-04-07T09:41:07;100629.13;;;12.74;72.16
41218;BME280;26950;50.960;7.138;2023-04-07T09:43:37;100631.06;;;12.83;71.81
41218;BME280;26950;50.960;7.138;2023-04-07T09:46:08;100627.56;;;12.85;71.82
41218;BME280;26950;50.960;7.138;2023-04-07T09:48:35;100620.78;;;12.98;71.35
41218;BME280;26950;50.960;7.138;2023-04-07T09:51:04;100625.25;;;13.02;71.52
41218;BME280;26950;50.960;7.138;2023-04-07T09:53:44;100627.13;;;13.08;71.42
41218;BME280;26950;50.960;7.138;2023-04-07T09:56:12;100631.44;;;13.06;71.28
41218;BME280;26950;50.960;7.138;2023-04-07T09:58:43;100632.31;;;13.05;71.34
41218;BME280;26950;50.960;7.138;2023-04-07T10:01:10;100631.44;;;13.04;71.45
41218;BME280;26950;50.960;7.138;2023-04-07T10:03:37;100630.59;;;13.07;71.27
41218;BME280;26950;50.960;7.138;2023-04-07T10:06:05;100631.56;;;13.12;71.35
41218;BME280;26950;50.960;7.138;2023-04-07T10:08:33;100635.25;;;13.20;71.29
41218;BME280;26950;50.960;7.138;2023-04-07T10:11:01;100635.41;;;13.28;71.03
41218;BME280;26950;50.960;7.138;2023-04-07T10:13:28;100639.84;;;13.32;70.37
41218;BME280;26950;50.960;7.138;2023-04-07T10:15:57;100644.13;;;13.25;70.52
41218;BME280;26950;50.960;7.138;2023-04-07T10:18:27;100640.56;;;13.21;70.79
41218;BME280;26950;50.960;7.138;2023-04-07T10:20:55;100638.53;;;13.08;70.60
41218;BME280;26950;50.960;7.138;2023-04-07T10:23:26;100641.19;;;13.10;70.72
41218;BME280;26950;50.960;7.138;2023-04-07T10:25:55;100643.75;;;13.07;71.08
41218;BME280;26950;50.960;7.138;2023-04-07T10:28:25;100653.34;;;13.02;71.52
41218;BME280;26950;50.960;7.138;2023-04-07T10:30:52;100653.75;;;13.23;70.91
41218;BME280;26950;50.960;7.138;2023-04-07T10:33:45;100654.72;;;13.28;70.75
41218;BME280;26950;50.960;7.138;2023-04-07T10:36:13;100660.91;;;13.30;70.46
41218;BME280;26950;50.960;7.138;2023-04-07T10:38:39;100661.66;;;12.78;72.17
41218;BME280;26950;50.960;7.138;2023-04-07T10:41:31;100665.34;;;12.87;71.66
41218;BME280;26950;50.960;7.138;2023-04-07T10:43:58;100657.75;;;13.03;70.97
41218;BME280;26950;50.960;7.138;2023-04-07T10:46:24;100656.13;;;13.09;70.64
41218;BME280;26950;50.960;7.138;2023-04-07T10:49:13;100666.47;;;13.00;70.65
41218;BME280;26950;50.960;7.138;2023-04-07T10:51:41;100663.13;;;13.09;70.75
41218;BME280;26950;50.960;7.138;2023-04-07T10:54:17;100664.91;;;13.10;71.04
41218;BME280;26950;50.960;7.138;2023-04-07T10:57:07;100677.47;;;12.78;71.75
41218;BME280;26950;50.960;7.138;2023-04-07T10:59:35;100667.56;;;12.24;73.44
41218;BME280;26950;50.960;7.138;2023-04-07T11:02:33;100669.81;;;12.46;73.51
41218;BME280;26950;50.960;7.138;2023-04-07T11:05:02;100671.34;;;12.79;72.40
41218;BME280;26950;50.960;7.138;2023-04-07T11:07:58;100676.31;;;12.63;72.96
41218;BME280;26950;50.960;7.138;2023-04-07T11:10:29;100675.16;;;12.51;73.41
41218;BME280;26950;50.960;7.138;2023-04-07T11:13:03;100679.22;;;12.77;72.56
41218;BME280;26950;50.960;7.138;2023-04-07T11:15:30;100679.38;;;12.86;72.30
41218;BME280;26950;50.960;7.138;2023-04-07T11:18:15;100678.63;;;12.92;72.60
41218;BME280;26950;50.960;7.138;2023-04-07T11:20:49;100673.69;;;13.10;71.95
41218;BME280;26950;50.960;7.138;2023-04-07T11:23:17;100683.25;;;13.04;71.63
41218;BME280;26950;50.960;7.138;2023-04-07T11:25:46;100674.06;;;12.83;72.09
41218;BME280;26950;50.960;7.138;2023-04-07T11:28:13;100683.13;;;12.98;71.44
41218;BME280;26950;50.960;7.138;2023-04-07T11:30:46;100684.09;;;13.03;71.33
41218;BME280;26950;50.960;7.138;2023-04-07T11:33:15;100687.78;;;13.12;70.78
41218;BME280;26950;50.960;7.138;2023-04-07T11:35:48;100690.28;;;13.06;71.35
41218;BME280;26950;50.960;7.138;2023-04-07T11:38:15;100694.03;;;13.17;70.94
41218;BME280;26950;50.960;7.138;2023-04-07T11:40:41;100696.66;;;13.17;70.87
41218;BME280;26950;50.960;7.138;2023-04-07T11:43:15;100697.53;;;13.18;70.79
41218;BME280;26950;50.960;7.138;2023-04-07T11:45:42;100687.16;;;13.26;70.58
41218;BME280;26950;50.960;7.138;2023-04-07T11:48:26;100692.66;;;13.36;70.90
41218;BME280;26950;50.960;7.138;2023-04-07T11:50:54;100693.22;;;13.20;71.54
41218;BME280;26950;50.960;7.138;2023-04-07T11:53:25;100697.06;;;12.93;72.30
41218;BME280;26950;50.960;7.138;2023-04-07T11:55:58;100694.47;;;13.39;71.01
41218;BME280;26950;50.960;7.138;2023-04-07T11:58:25;100703.41;;;13.48;70.74
41218;BME280;26950;50.960;7.138;2023-04-07T12:00:52;100707.69;;;13.42;70.88
41218;BME280;26950;50.960;7.138;2023-04-07T12:03:20;100705.63;;;13.26;71.51
41218;BME280;26950;50.960;7.138;2023-04-07T12:05:46;100712.84;;;13.36;71.11
41218;BME280;26950;50.960;7.138;2023-04-07T12:08:14;100713.75;;;12.94;72.11
41218;BME280;26950;50.960;7.138;2023-04-07T12:10:41;100714.47;;;13.28;71.20
41218;BME280;26950;50.960;7.138;2023-04-07T12:13:08;100706.66;;;13.34;70.43
41218;BME280;26950;50.960;7.138;2023-04-07T12:15:35;100712.22;;;13.05;70.82
41218;BME280;26950;50.960;7.138;2023-04-07T12:18:02;100721.53;;;13.30;70.24
41218;BME280;26950;50.960;7.138;2023-04-07T12:20:28;100721.25;;;13.16;71.58
41218;BME280;26950;50.960;7.138;2023-04-07T12:22:55;100720.25;;;13.10;71.86
41218;BME280;26950;50.960;7.138;2023-04-07T12:25:24;100721.88;;;13.05;71.63
41218;BME280;26950;50.960;7.138;2023-04-07T12:27:51;100725.81;;;13.25;70.78
41218;BME280;26950;50.960;7.138;2023-04-07T12:30:18;100724.78;;;13.18;70.47
41218;BME280;26950;50.960;7.138;2023-04-07T12:32:45;100728.38;;;13.20;70.49
41218;BME280;26950;50.960;7.138;2023-04-07T12:35:12;100730.06;;;13.18;70.57
41218;BME280;26950;50.960;7.138;2023-04-07T12:37:38;100731.69;;;13.12;70.69
41218;BME280;26950;50.960;7.138;2023-04-07T12:40:06;100731.81;;;13.18;70.15
41218;BME280;26950;50.960;7.138;2023-04-07T12:42:34;100743.94;;;12.66;72.25
41218;BME280;26950;50.960;7.138;2023-04-07T12:45:00;100734.06;;;12.98;71.62
41218;BME280;26950;50.960;7.138;2023-04-07T12:47:27;100742.28;;;13.15;71.16
41218;BME280;26950;50.960;7.138;2023-04-07T12:49:53;100742.72;;;13.36;70.79
41218;BME280;26950;50.960;7.138;2023-04-07T12:52:20;100742.03;;;13.46;70.45
41218;BME280;26950;50.960;7.138;2023-04-07T12:54:47;100736.63;;;13.39;70.46